CYVRVANCOUVER INTL
METARs for airports near CYVR, sorted by distance:
N 0 nm 14' CYVR 222200Z 28008KT 25SM FEW040 FEW190 SCT240 07/05 A3054
W 28 nm 92' CYCD 222200Z 08004KT 010V090 30SM FEW021 BKN210 07/03 A3054
S 31 nm 34' KORS 222235Z 32008KT 10SM FEW009 07/05 A3054
S 34 nm 64' CYYJ 222200Z VRB02KT 30SM FEW019 FEW030 BKN250 08/04 A3054
SE 35 nm 171' KBLI 222153Z 33005KT 10SM FEW010 08/03 A3053
S 40 nm 112' KFHR 222153Z 35008KT 10SM CLR 07/03 A3055
SE 52 nm 145' KBVS 222235Z 31007KT 10SM CLR 08/04 A3052
SE 54 nm 47' KNUW 222156Z 33010KT 10SM FEW010 BKN150 BKN250 08/03 A3058
S 63 nm 13' KNOW 222235Z 08007KT 10SM CLR 07/05 A3054
NW 64 nm 425' CYPW 222200Z 29006KT 20SM FEW007 OVC014 04/03 A3056
S 65 nm 291' KCLM 222153Z 07007KT 10SM OVC012 07/03 A3054
NW 73 nm 84' CYQQ 222200Z 35004KT 20SM OVC010 05/03 A3057
SE 74 nm 141' KAWO 222156Z 31007KT 10SM CLR 08/04 A3052
SE 85 nm 606' KPAE 222205Z 35008KT 10SM VCFG FEW001 06/03 A3051
NW 93 nm 357' CYBL 222200Z VRB02KT 15SM OVC006 03/02 A3057
SW 93 nm 193' KUIL 222153Z 05005KT 10SM CLR 10/06 A3046
TAFs for airports near CYVR, sorted by distance:
SE 35 nm 171' KBLI TAF KBLI 221720Z 2218/2318 VRB04KT P6SM SCT010 SCT250
  TEMPO 2218/2220 4SM BR OVC007
  FM222000 36003KT P6SM FEW010 SCT200
  FM230800 00000KT 4SM BR SKC
  FM231100 00000KT 1SM BR SKC
  TEMPO 2312/2316 1/4SM FG VV001
SE 54 nm 47' KNUW TAF KNUW 2215/2315 VRB06KT 8000 BR VCFG SCT003 BKN250 QNH3056INS
  TEMPO 2215/2219 0800 FG VV002
  FM221900 35008KT 9999 VCFG FEW010 SCT080 SCT250 QNH3045INS
  FM230000 VRB06KT 9999 FEW010 SCT180 QNH3046INS T07/2222Z T02/2309Z FS30189
S 65 nm 291' KCLM TAF KCLM 221720Z 2218/2318 VRB04KT P6SM OVC013
  FM222000 11004KT P6SM SCT200
  FM230600 14003KT 6SM BR OVC015
SE 85 nm 606' KPAE TAF
  AMD KPAE 222145Z 2222/2318 36006KT P6SM SCT010 SCT200
  FM230500 VRB02KT 1SM BR BKN003
  FM231000 00000KT 1/4SM FG VV001

Shortcut to this page: http://wxbay.com.

Data may contain errors.